Terminal Aerodrome Forecast
Issued by NWS

Home | Current Version | Previous Version | Text Only | Print | Product List | Glossary On
Versions: 1 2 3 4 5 6 7 8 9 10 11 12 13 14 15 16 17
000
FTAK31 PAJN 042324
TAFAKT
TAF
PAKT 042324Z 0500/0524 14011KT P6SM BKN110
     FM051000 14009KT P6SM VCSH OVC060
     FM051200 15010G16KT P6SM -RA BKN025 OVC040 WS020/15025KT
     FM051600 15012G22KT 6SM -RA BR BKN020 OVC035 WS020/15030KT
     FM052000 15010G18KT P6SM -RA BKN030 OVC040 WS020/15030KT
      AMD LTD TO CLD VIS AND WIND 0506/0515=

USA.gov is the U.S. government's official web portal to all federal, state and local government web resources and services.